createdAt,value
2022-08-02T00:02:21.034Z,4.80
2022-08-02T00:04:47.855Z,4.90
2022-08-02T00:07:15.139Z,5.33
2022-08-02T00:09:42.394Z,5.10
2022-08-02T00:12:09.366Z,4.97
2022-08-02T00:14:35.987Z,5.80
2022-08-02T00:17:02.421Z,5.30
2022-08-02T00:19:28.851Z,4.90
2022-08-02T00:21:55.259Z,5.77
2022-08-02T00:24:32.151Z,5.40
2022-08-02T00:26:59.106Z,5.47
2022-08-02T00:29:25.686Z,5.90
2022-08-02T00:31:52.123Z,5.63
2022-08-02T00:34:30.218Z,5.33
2022-08-02T00:36:58.793Z,5.23
2022-08-02T00:39:33.842Z,5.40
2022-08-02T00:42:02.367Z,5.90
2022-08-02T00:44:28.908Z,5.30
2022-08-02T00:46:55.339Z,5.40
2022-08-02T00:49:21.881Z,4.90
2022-08-02T00:51:48.328Z,5.10
2022-08-02T00:54:15.046Z,5.47
2022-08-02T00:56:49.578Z,5.53
2022-08-02T00:59:18.214Z,4.70
2022-08-02T01:01:56.101Z,5.40
2022-08-02T01:04:30.576Z,4.67
2022-08-02T01:06:59.501Z,5.83
2022-08-02T01:09:26.015Z,6.17
2022-08-02T01:11:52.629Z,5.00
2022-08-02T01:14:19.537Z,5.63
2022-08-02T01:16:57.183Z,4.70
2022-08-02T01:19:48.105Z,5.90
2022-08-02T01:23:05.300Z,5.67
2022-08-02T01:25:53.458Z,4.60
2022-08-02T01:28:43.444Z,5.50
2022-08-02T01:31:20.898Z,6.00
2022-08-02T01:34:16.150Z,5.80
2022-08-02T01:36:55.966Z,4.77
2022-08-02T01:39:32.095Z,4.87
2022-08-02T01:42:01.017Z,5.57
2022-08-02T01:44:30.377Z,5.40
2022-08-02T01:47:01.313Z,5.50
2022-08-02T01:49:30.188Z,5.70
2022-08-02T01:52:17.354Z,5.20
2022-08-02T01:54:45.564Z,5.70
2022-08-02T01:57:14.521Z,5.70
2022-08-02T01:59:44.033Z,5.73
2022-08-02T02:02:14.437Z,6.77
2022-08-02T02:04:42.162Z,5.50
2022-08-02T02:07:09.424Z,4.90
2022-08-02T02:09:50.340Z,5.60
2022-08-02T02:12:18.345Z,6.17
2022-08-02T02:14:51.366Z,5.60
2022-08-02T02:18:10.853Z,5.87
2022-08-02T02:20:09.875Z,5.80
2022-08-02T02:22:36.632Z,6.20
2022-08-02T02:25:05.007Z,5.90
2022-08-02T02:27:37.075Z,5.57
2022-08-02T02:30:05.959Z,5.53
2022-08-02T02:32:33.889Z,6.20
2022-08-02T02:35:03.736Z,5.40
2022-08-02T02:37:32.036Z,6.20
2022-08-02T02:39:59.202Z,5.60
2022-08-02T02:42:31.440Z,5.87
2022-08-02T02:45:00.087Z,5.60
2022-08-02T02:47:41.621Z,5.70
2022-08-02T02:50:10.883Z,6.37
2022-08-02T02:52:39.620Z,5.23
2022-08-02T02:55:07.856Z,4.93
2022-08-02T02:57:35.952Z,5.90
2022-08-02T03:00:04.967Z,5.00
2022-08-02T03:02:31.925Z,5.70
2022-08-02T03:05:02.759Z,5.50
2022-08-02T03:07:29.483Z,5.37
2022-08-02T03:09:56.040Z,5.67
2022-08-02T03:12:31.823Z,7.07
2022-08-02T03:15:00.704Z,5.87
2022-08-02T03:17:37.565Z,5.87
2022-08-02T03:20:11.366Z,6.03
2022-08-02T03:22:37.831Z,5.47
2022-08-02T03:25:04.546Z,6.40
2022-08-02T03:27:30.943Z,5.70
2022-08-02T03:29:57.359Z,6.20
2022-08-02T03:32:24.610Z,5.10
2022-08-02T03:34:51.195Z,4.97
2022-08-02T03:37:17.846Z,5.67
2022-08-02T03:39:52.589Z,5.70
2022-08-02T03:42:21.145Z,5.43
2022-08-02T03:44:49.001Z,5.70
2022-08-02T03:47:17.168Z,5.97
2022-08-02T03:49:44.113Z,4.90
2022-08-02T03:52:11.476Z,5.90
2022-08-02T03:54:45.807Z,5.20
2022-08-02T03:57:13.488Z,5.50
2022-08-02T03:59:45.084Z,5.97
2022-08-02T04:02:12.983Z,6.00
2022-08-02T04:04:40.232Z,5.67
2022-08-02T04:07:07.552Z,5.50
2022-08-02T04:09:34.310Z,4.93
2022-08-02T04:12:00.768Z,5.80
2022-08-02T04:14:27.597Z,5.10
2022-08-02T04:16:59.402Z,5.10
2022-08-02T04:19:31.359Z,4.87
2022-08-02T04:22:04.767Z,4.70
2022-08-02T04:24:41.687Z,5.10
2022-08-02T04:27:51.219Z,5.17
2022-08-02T04:29:58.462Z,4.27
2022-08-02T04:32:25.105Z,5.10
2022-08-02T04:35:18.164Z,4.50
2022-08-02T04:38:08.751Z,4.57
2022-08-02T04:40:26.164Z,5.00
2022-08-02T04:42:53.753Z,4.47
2022-08-02T04:45:21.590Z,4.80
2022-08-02T04:47:54.257Z,5.00
2022-08-02T04:50:30.136Z,4.90
2022-08-02T04:52:56.597Z,4.63
2022-08-02T04:55:28.221Z,4.60
2022-08-02T04:57:55.416Z,4.43
2022-08-02T05:00:22.224Z,5.00
2022-08-02T05:02:49.568Z,5.10
2022-08-02T05:05:16.717Z,4.77
2022-08-02T05:07:43.199Z,4.83
2022-08-02T05:10:10.271Z,4.83
2022-08-02T05:12:40.024Z,4.60
2022-08-02T05:15:07.281Z,4.30
2022-08-02T05:17:39.236Z,4.63
2022-08-02T05:20:14.926Z,5.23
2022-08-02T05:22:42.238Z,4.67
2022-08-02T05:25:09.221Z,5.30
2022-08-02T05:27:35.753Z,4.50
2022-08-02T05:30:02.913Z,4.37
2022-08-02T05:32:29.341Z,4.10
2022-08-02T05:34:55.773Z,5.37
2022-08-02T05:37:22.195Z,5.00
2022-08-02T05:39:55.713Z,4.50
2022-08-02T05:42:23.292Z,4.40
2022-08-02T05:44:49.726Z,4.80
2022-08-02T05:47:16.241Z,4.97
2022-08-02T05:49:42.940Z,5.23
2022-08-02T05:52:16.974Z,4.07
2022-08-02T05:55:09.740Z,5.07
2022-08-02T05:58:11.280Z,4.60
2022-08-02T06:00:40.574Z,4.50
2022-08-02T06:03:16.919Z,5.07
2022-08-02T06:06:05.127Z,5.60
2022-08-02T06:08:39.112Z,5.30
2022-08-02T06:11:06.965Z,5.33
2022-08-02T06:13:33.701Z,5.50
2022-08-02T06:16:00.528Z,6.57
2022-08-02T06:18:29.137Z,5.93
2022-08-02T06:22:29.650Z,5.90
2022-08-02T06:23:57.626Z,5.83
2022-08-02T06:26:26.977Z,5.93
2022-08-02T06:28:55.262Z,5.57
2022-08-02T06:31:21.863Z,5.77
2022-08-02T06:33:48.510Z,5.80
2022-08-02T06:36:34.938Z,4.70
2022-08-02T06:39:18.847Z,5.80
2022-08-02T06:41:49.985Z,5.43
2022-08-02T06:47:11.530Z,4.70
2022-08-02T06:49:52.738Z,5.10
2022-08-02T06:52:27.722Z,5.30
2022-08-02T06:54:56.909Z,4.47
2022-08-02T06:57:23.336Z,4.40
2022-08-02T06:59:49.737Z,4.23
2022-08-02T07:02:16.261Z,5.60
2022-08-02T07:04:42.774Z,4.63
2022-08-02T07:07:09.336Z,5.90
2022-08-02T07:09:35.769Z,5.30
2022-08-02T07:12:02.386Z,5.30
2022-08-02T07:14:28.922Z,5.03
2022-08-02T07:16:55.387Z,7.17
2022-08-02T07:19:21.787Z,6.20
2022-08-02T07:22:00.768Z,6.40
2022-08-02T07:24:28.379Z,6.30
2022-08-02T07:27:10.344Z,4.80
2022-08-02T07:29:46.548Z,6.13
2022-08-02T07:32:17.944Z,5.30
2022-08-02T07:34:51.240Z,5.80
2022-08-02T07:37:35.066Z,5.90
2022-08-02T07:40:14.202Z,5.53
2022-08-02T07:42:43.703Z,5.27
2022-08-02T07:45:12.506Z,4.60
2022-08-02T07:47:40.135Z,5.20
2022-08-02T07:50:08.232Z,4.87
2022-08-02T07:52:36.097Z,5.57
2022-08-02T07:55:02.661Z,4.53
2022-08-02T07:57:29.224Z,4.57
2022-08-02T07:59:55.655Z,4.73
2022-08-02T08:02:24.596Z,5.07
2022-08-02T08:04:51.980Z,4.10
2022-08-02T08:07:18.455Z,4.20
2022-08-02T08:09:47.277Z,4.50
2022-08-02T08:12:15.920Z,4.40
2022-08-02T08:14:44.245Z,4.30
2022-08-02T08:17:10.781Z,4.50
2022-08-02T08:19:51.620Z,3.73
2022-08-02T08:22:19.366Z,4.27
2022-08-02T08:24:45.812Z,3.87
2022-08-02T08:27:14.647Z,3.27
2022-08-02T08:29:44.875Z,3.33
2022-08-02T08:32:16.266Z,3.30
2022-08-02T08:34:45.193Z,3.70
2022-08-02T08:37:18.248Z,4.00
2022-08-02T08:39:57.578Z,3.40
2022-08-02T08:42:28.595Z,3.00
2022-08-02T08:44:56.711Z,3.47
2022-08-02T08:47:33.650Z,3.00
2022-08-02T08:50:05.578Z,3.23
2022-08-02T08:52:36.757Z,2.80
2022-08-02T08:55:05.617Z,3.13
2022-08-02T08:57:39.629Z,3.60
2022-08-02T09:00:06.905Z,2.90
2022-08-02T09:02:35.263Z,3.17
2022-08-02T09:05:01.842Z,3.40
2022-08-02T09:07:28.633Z,3.10
2022-08-02T09:09:55.081Z,3.40
2022-08-02T09:12:22.429Z,3.00
2022-08-02T09:14:50.179Z,3.00
2022-08-02T09:17:17.249Z,2.70
2022-08-02T09:19:45.734Z,2.80
2022-08-02T09:22:14.796Z,2.13
2022-08-02T09:24:50.213Z,3.57
2022-08-02T09:27:25.961Z,2.17
2022-08-02T09:30:11.606Z,2.50
2022-08-02T09:32:47.884Z,2.83
2022-08-02T09:35:30.584Z,3.50
2022-08-02T09:38:17.231Z,3.13
2022-08-02T09:40:44.355Z,2.93
2022-08-02T09:43:10.793Z,2.90
2022-08-02T09:45:37.722Z,2.47
2022-08-02T09:48:08.233Z,2.97
2022-08-02T09:50:37.388Z,2.97
2022-08-02T09:53:04.234Z,3.73
2022-08-02T09:55:30.676Z,3.13
2022-08-02T09:57:57.101Z,3.00
2022-08-02T10:00:37.442Z,2.70
2022-08-02T10:03:21.683Z,2.57
2022-08-02T10:05:56.228Z,3.80
2022-08-02T10:08:32.964Z,3.77
2022-08-02T10:11:03.512Z,3.00
2022-08-02T10:13:34.733Z,3.13
2022-08-02T10:16:02.594Z,3.67
2022-08-02T10:18:45.623Z,3.50
2022-08-02T10:21:19.902Z,3.37
2022-08-02T10:23:49.622Z,3.57
2022-08-02T10:26:18.944Z,3.40
2022-08-02T10:28:47.985Z,2.93
2022-08-02T10:31:20.768Z,2.50
2022-08-02T10:33:50.392Z,2.20
2022-08-02T10:36:18.172Z,2.23
2022-08-02T10:38:46.270Z,2.50
2022-08-02T10:41:12.959Z,2.70
2022-08-02T10:43:42.521Z,2.40
2022-08-02T10:46:31.805Z,3.00
2022-08-02T10:49:37.499Z,2.43
2022-08-02T10:52:05.831Z,2.93
2022-08-02T10:54:36.940Z,2.20
2022-08-02T10:57:15.214Z,2.10
2022-08-02T10:59:42.175Z,2.80
2022-08-02T11:02:09.284Z,4.63
2022-08-02T11:04:41.756Z,2.50
2022-08-02T11:07:10.777Z,2.20
2022-08-02T11:09:38.173Z,2.90
2022-08-02T11:12:05.991Z,2.47
2022-08-02T11:14:35.377Z,2.07
2022-08-02T11:17:09.485Z,2.10
2022-08-02T11:20:11.126Z,2.20
2022-08-02T11:22:41.847Z,4.53
2022-08-02T11:25:23.762Z,4.57
2022-08-02T11:28:16.165Z,6.10
2022-08-02T11:30:42.629Z,2.80
2022-08-02T11:33:09.136Z,2.67
2022-08-02T11:35:38.192Z,2.33
2022-08-02T11:38:21.072Z,2.30
2022-08-02T11:40:48.869Z,2.07
2022-08-02T11:43:30.717Z,2.10
2022-08-02T11:45:57.357Z,1.97
2022-08-02T11:48:38.312Z,2.30
2022-08-02T11:51:09.848Z,2.03
2022-08-02T11:53:53.708Z,2.20
2022-08-02T11:56:32.503Z,2.83
2022-08-02T11:59:09.283Z,2.20
2022-08-02T12:01:45.773Z,2.20
2022-08-02T12:04:16.735Z,2.27
2022-08-02T12:06:43.732Z,1.63
2022-08-02T12:09:17.849Z,2.67
2022-08-02T12:11:48.976Z,1.87
2022-08-02T12:14:15.375Z,2.00
2022-08-02T12:17:00.428Z,1.97
2022-08-02T12:19:27.770Z,2.00
2022-08-02T12:22:41.963Z,2.20
2022-08-02T12:25:34.143Z,2.23
2022-08-02T12:28:22.097Z,2.40
2022-08-02T12:30:51.482Z,2.50
2022-08-02T12:33:18.439Z,2.07
2022-08-02T12:35:44.892Z,1.53
2022-08-02T12:38:12.468Z,2.37
2022-08-02T12:40:39.069Z,1.93
2022-08-02T12:43:07.793Z,2.20
2022-08-02T12:45:56.527Z,1.70
2022-08-02T12:48:37.793Z,2.00
2022-08-02T12:51:50.734Z,1.93
2022-08-02T12:54:40.082Z,1.80
2022-08-02T12:57:11.567Z,3.00
2022-08-02T12:59:39.947Z,3.23
2022-08-02T13:02:11.413Z,1.87
2022-08-02T13:04:38.704Z,1.87
2022-08-02T13:07:05.724Z,1.80
2022-08-02T13:09:45.459Z,2.10
2022-08-02T13:12:12.222Z,2.03
2022-08-02T13:14:42.010Z,1.80
2022-08-02T13:17:09.661Z,1.77
2022-08-02T13:19:36.871Z,1.80
2022-08-02T13:22:04.064Z,1.80
2022-08-02T13:24:41.185Z,1.80
2022-08-02T13:27:18.848Z,1.90
2022-08-02T13:29:47.079Z,1.50
2022-08-02T13:32:14.315Z,2.03
2022-08-02T13:34:41.096Z,1.70
2022-08-02T13:37:07.508Z,1.70
2022-08-02T13:39:33.912Z,1.53
2022-08-02T13:42:00.381Z,1.97
2022-08-02T13:44:26.815Z,1.90
2022-08-02T13:46:53.240Z,1.80
2022-08-02T13:49:20.490Z,1.77
2022-08-02T13:51:48.725Z,2.10
2022-08-02T13:54:15.957Z,2.27
2022-08-02T13:56:42.711Z,1.80
2022-08-02T13:59:55.234Z,1.93
2022-08-02T14:01:56.611Z,1.60
2022-08-02T14:04:24.462Z,2.47
2022-08-02T14:06:51.190Z,1.87
2022-08-02T14:09:17.841Z,1.90
2022-08-02T14:11:45.750Z,1.90
2022-08-02T14:14:16.694Z,1.90
2022-08-02T14:16:45.122Z,1.70
2022-08-02T14:19:16.317Z,1.53
2022-08-02T14:21:46.913Z,1.53
2022-08-02T14:24:17.735Z,1.50
2022-08-02T14:26:44.832Z,1.70
2022-08-02T14:29:12.947Z,1.80
2022-08-02T14:31:44.424Z,1.83
2022-08-02T14:34:11.711Z,1.70
2022-08-02T14:36:39.118Z,1.47
2022-08-02T14:39:05.773Z,1.80
2022-08-02T14:41:33.892Z,1.60
2022-08-02T14:44:20.360Z,1.77
2022-08-02T14:46:46.860Z,1.77
2022-08-02T14:49:14.600Z,1.50
2022-08-02T14:51:53.488Z,1.50
2022-08-02T14:54:19.985Z,1.57
2022-08-02T14:56:46.453Z,1.87
2022-08-02T14:59:15.353Z,1.80
2022-08-02T15:01:41.854Z,1.60
2022-08-02T15:04:08.476Z,1.63
2022-08-02T15:06:34.881Z,1.73
2022-08-02T15:09:01.349Z,1.70
2022-08-02T15:11:27.937Z,1.53
2022-08-02T15:13:55.010Z,1.63
2022-08-02T15:16:37.117Z,1.47
2022-08-02T15:19:12.143Z,1.80
2022-08-02T15:21:48.937Z,1.53
2022-08-02T15:24:20.941Z,1.87
2022-08-02T15:26:48.297Z,1.53
2022-08-02T15:29:14.704Z,1.40
2022-08-02T15:31:41.908Z,1.77
2022-08-02T15:34:08.621Z,1.67
2022-08-02T15:36:35.184Z,1.80
2022-08-02T15:39:01.936Z,1.97
2022-08-02T15:41:28.339Z,1.53
2022-08-02T15:44:00.646Z,1.70
2022-08-02T15:46:30.767Z,2.50
2022-08-02T15:48:58.915Z,1.80
2022-08-02T15:51:26.686Z,2.93
2022-08-02T15:53:53.141Z,2.70
2022-08-02T15:56:23.932Z,2.20
2022-08-02T15:58:51.740Z,1.90
2022-08-02T16:01:22.008Z,1.50
2022-08-02T16:03:48.483Z,1.60
2022-08-02T16:06:15.782Z,1.60
2022-08-02T16:08:53.352Z,2.20
2022-08-02T16:11:21.204Z,1.70
2022-08-02T16:13:52.934Z,1.70
2022-08-02T16:16:25.360Z,2.37
2022-08-02T16:18:51.993Z,2.30
2022-08-02T16:21:19.295Z,1.87
2022-08-02T16:24:02.699Z,1.60
2022-08-02T16:26:34.130Z,1.70
2022-08-02T16:29:02.377Z,1.53
2022-08-02T16:31:28.933Z,2.33
2022-08-02T16:33:57.081Z,2.03
2022-08-02T16:36:25.027Z,1.80
2022-08-02T16:38:52.931Z,2.10
2022-08-02T16:41:19.504Z,1.63
2022-08-02T16:43:46.030Z,1.73
2022-08-02T16:46:12.528Z,1.87
2022-08-02T16:48:39.346Z,1.70
2022-08-02T16:51:13.759Z,1.80
2022-08-02T16:54:00.623Z,1.83
2022-08-02T16:56:30.822Z,1.73
2022-08-02T16:58:59.482Z,1.77
2022-08-02T17:01:28.049Z,1.57
2022-08-02T17:04:14.027Z,1.90
2022-08-02T17:06:47.852Z,1.97
2022-08-02T17:10:03.974Z,1.47
2022-08-02T17:12:05.745Z,1.70
2022-08-02T17:14:36.636Z,1.50
2022-08-02T17:17:21.355Z,1.80
2022-08-02T17:19:47.966Z,2.00
2022-08-02T17:22:14.739Z,1.73
2022-08-02T17:24:44.337Z,2.07
2022-08-02T17:27:17.088Z,2.03
2022-08-02T17:29:43.597Z,1.87
2022-08-02T17:32:12.894Z,2.00
2022-08-02T17:34:39.522Z,1.93
2022-08-02T17:37:15.400Z,1.60
2022-08-02T17:39:43.820Z,2.13
2022-08-02T17:42:19.909Z,2.03
2022-08-02T17:44:49.170Z,1.87
2022-08-02T17:47:16.015Z,2.20
2022-08-02T17:49:48.540Z,1.50
2022-08-02T17:52:50.304Z,2.23
2022-08-02T17:55:07.550Z,1.90
2022-08-02T17:57:57.993Z,1.90
2022-08-02T18:00:20.755Z,2.00
2022-08-02T18:02:52.731Z,2.03
2022-08-02T18:05:22.072Z,1.77
2022-08-02T18:07:51.923Z,2.10
2022-08-02T18:10:22.028Z,2.20
2022-08-02T18:12:49.730Z,2.50
2022-08-02T18:15:16.219Z,2.60
2022-08-02T18:17:42.800Z,2.97
2022-08-02T18:20:11.129Z,3.00
2022-08-02T18:22:38.151Z,2.77
2022-08-02T18:25:09.517Z,2.27
2022-08-02T18:27:38.910Z,2.20
2022-08-02T18:30:08.051Z,2.10
2022-08-02T18:33:54.400Z,2.30
2022-08-02T18:35:21.629Z,2.00
2022-08-02T18:37:56.706Z,1.97
2022-08-02T18:40:24.356Z,1.77
2022-08-02T18:42:50.759Z,2.00
2022-08-02T18:45:19.488Z,2.10
2022-08-02T18:47:51.011Z,2.20
2022-08-02T18:50:18.051Z,1.90
2022-08-02T18:52:44.722Z,2.90
2022-08-02T18:55:17.507Z,1.77
2022-08-02T18:58:19.644Z,2.30
2022-08-02T19:00:48.217Z,2.20
2022-08-02T19:03:19.251Z,1.70
2022-08-02T19:05:53.398Z,2.00
2022-08-02T19:08:25.496Z,1.83
2022-08-02T19:10:53.649Z,2.17
2022-08-02T19:13:23.393Z,2.07
2022-08-02T19:15:50.053Z,1.80
2022-08-02T19:18:16.475Z,2.10
2022-08-02T19:20:48.085Z,1.90
2022-08-02T19:23:15.199Z,2.07
2022-08-02T19:25:50.067Z,2.00
2022-08-02T19:28:16.875Z,2.00
2022-08-02T19:30:52.919Z,2.10
2022-08-02T19:33:54.789Z,1.90
2022-08-02T19:36:09.711Z,2.10
2022-08-02T19:38:43.424Z,1.73
2022-08-02T19:41:11.550Z,2.17
2022-08-02T19:44:25.537Z,2.00
2022-08-02T19:46:24.769Z,1.70
2022-08-02T19:48:51.665Z,2.10
2022-08-02T19:51:54.760Z,2.10
2022-08-02T19:54:05.628Z,1.90
2022-08-02T19:56:37.028Z,2.33
2022-08-02T20:01:52.580Z,2.30
2022-08-02T20:04:23.378Z,2.00
2022-08-02T20:06:50.740Z,2.23
2022-08-02T20:09:22.289Z,2.13
2022-08-02T20:11:54.509Z,2.37
2022-08-02T20:14:22.810Z,2.40
2022-08-02T20:16:54.583Z,2.20
2022-08-02T20:19:21.794Z,1.50
2022-08-02T20:21:56.670Z,2.07
2022-08-02T20:24:27.399Z,2.20
2022-08-02T20:26:55.117Z,2.33
2022-08-02T20:29:42.984Z,2.10
2022-08-02T20:32:12.272Z,2.80
2022-08-02T20:34:38.736Z,2.17
2022-08-02T20:38:00.930Z,2.00
2022-08-02T20:39:51.984Z,2.30
2022-08-02T20:42:22.797Z,2.07
2022-08-02T20:44:54.013Z,1.87
2022-08-02T20:47:27.677Z,2.30
2022-08-02T20:50:28.013Z,2.00
2022-08-02T20:53:00.232Z,2.03
2022-08-02T20:55:27.699Z,2.20
2022-08-02T20:58:01.067Z,2.30
2022-08-02T21:00:28.547Z,2.50
2022-08-02T21:02:55.295Z,2.30
2022-08-02T21:05:26.732Z,2.00
2022-08-02T21:08:14.202Z,2.13
2022-08-02T21:10:43.791Z,1.90
2022-08-02T21:13:22.672Z,2.00
2022-08-02T21:15:51.304Z,1.70
2022-08-02T21:18:25.693Z,1.93
2022-08-02T21:21:00.994Z,2.13
2022-08-02T21:23:28.658Z,2.17
2022-08-02T21:25:56.854Z,2.00
2022-08-02T21:28:24.863Z,2.23
2022-08-02T21:31:10.538Z,2.00
2022-08-02T21:33:56.777Z,2.43
2022-08-02T21:36:30.741Z,2.00
2022-08-02T21:38:59.288Z,2.53
2022-08-02T21:41:38.496Z,2.17
2022-08-02T21:44:06.202Z,1.80
2022-08-02T21:46:32.810Z,2.40
2022-08-02T21:49:01.175Z,2.37
2022-08-02T21:51:27.658Z,2.50
2022-08-02T21:54:18.846Z,2.50
2022-08-02T21:56:42.082Z,2.20
2022-08-02T21:59:16.378Z,2.20
2022-08-02T22:01:52.640Z,2.37
2022-08-02T22:04:19.733Z,2.67
2022-08-02T22:06:47.000Z,2.43
2022-08-02T22:09:17.686Z,2.40
2022-08-02T22:12:02.802Z,2.60
2022-08-02T22:14:29.251Z,2.30
2022-08-02T22:16:55.753Z,2.10
2022-08-02T22:19:22.652Z,2.97
2022-08-02T22:21:55.297Z,2.40
2022-08-02T22:24:27.025Z,2.27
2022-08-02T22:26:57.027Z,1.93
2022-08-02T22:29:23.475Z,2.53
2022-08-02T22:31:49.965Z,2.57
2022-08-02T22:34:37.102Z,2.30
2022-08-02T22:37:05.966Z,2.50
2022-08-02T22:39:34.135Z,2.53
2022-08-02T22:42:06.564Z,2.90
2022-08-02T22:44:34.780Z,2.70
2022-08-02T22:47:03.953Z,2.40
2022-08-02T22:49:39.111Z,2.83
2022-08-02T22:52:20.169Z,2.43
2022-08-02T22:54:47.548Z,2.70
2022-08-02T22:57:13.969Z,2.50
2022-08-02T22:59:08.351Z,2.20
2022-08-02T22:59:41.113Z,2.83
2022-08-02T23:02:08.890Z,2.33
2022-08-02T23:04:36.546Z,2.87
2022-08-02T23:07:03.565Z,2.30
2022-08-02T23:09:30.004Z,2.97
2022-08-02T23:11:56.492Z,2.87
2022-08-02T23:14:22.903Z,3.03
2022-08-02T23:17:08.579Z,2.63
2022-08-02T23:19:53.325Z,2.50
2022-08-02T23:22:30.022Z,3.50
2022-08-02T23:25:00.255Z,2.97
2022-08-02T23:27:27.423Z,3.00
2022-08-02T23:29:53.873Z,2.70
2022-08-02T23:32:25.962Z,3.10
2022-08-02T23:34:56.322Z,2.80
2022-08-02T23:37:23.999Z,2.80
2022-08-02T23:39:50.914Z,2.60
2022-08-02T23:42:17.637Z,4.10
2022-08-02T23:44:44.212Z,2.97
2022-08-02T23:47:11.081Z,3.17
2022-08-02T23:49:37.958Z,2.97
2022-08-02T23:52:04.560Z,2.70
2022-08-02T23:54:30.950Z,2.77
2022-08-02T23:56:57.418Z,3.00
2022-08-02T23:59:23.814Z,3.10
